createdAt,value
2023-04-13T00:00:39.532Z,929.22
2023-04-13T00:01:39.543Z,929.16
2023-04-13T00:02:39.729Z,929.16
2023-04-13T00:03:39.804Z,929.18
2023-04-13T00:04:39.509Z,929.16
2023-04-13T00:05:39.608Z,929.19
2023-04-13T00:06:39.503Z,929.19
2023-04-13T00:07:39.448Z,929.27
2023-04-13T00:08:39.472Z,929.26
2023-04-13T00:09:39.444Z,929.20
2023-04-13T00:10:39.492Z,929.21
2023-04-13T00:11:39.428Z,929.09
2023-04-13T00:12:39.468Z,929.25
2023-04-13T00:13:39.383Z,929.27
2023-04-13T00:14:39.393Z,929.31
2023-04-13T00:15:39.360Z,929.40
2023-04-13T00:16:39.419Z,929.45
2023-04-13T00:17:39.383Z,929.48
2023-04-13T00:18:39.372Z,929.53
2023-04-13T00:19:39.323Z,929.55
2023-04-13T00:20:39.337Z,929.56
2023-04-13T00:21:39.302Z,929.54
2023-04-13T00:22:39.313Z,929.53
2023-04-13T00:23:39.296Z,929.51
2023-04-13T00:24:39.348Z,929.49
2023-04-13T00:25:39.296Z,929.49
2023-04-13T00:26:39.276Z,929.47
2023-04-13T00:27:39.300Z,929.47
2023-04-13T00:28:39.235Z,929.45
2023-04-13T00:29:39.216Z,929.46
2023-04-13T00:30:39.281Z,929.44
2023-04-13T00:31:39.201Z,929.46
2023-04-13T00:32:39.268Z,929.43
2023-04-13T00:33:39.194Z,929.39
2023-04-13T00:34:39.179Z,929.48
2023-04-13T00:35:39.151Z,929.36
2023-04-13T00:36:39.149Z,929.45
2023-04-13T00:37:39.142Z,929.37
2023-04-13T00:38:39.207Z,929.35
2023-04-13T00:39:39.130Z,929.32
2023-04-13T00:40:39.136Z,929.28
2023-04-13T00:41:39.119Z,929.28
2023-04-13T00:42:39.115Z,929.36
2023-04-13T00:43:39.119Z,929.38
2023-04-13T00:44:39.071Z,929.41
2023-04-13T00:45:39.135Z,929.46
2023-04-13T00:46:39.091Z,929.45
2023-04-13T00:47:39.072Z,929.34
2023-04-13T00:48:39.026Z,929.30
2023-04-13T00:49:39.014Z,929.26
2023-04-13T00:50:39.029Z,929.31
2023-04-13T00:51:39.005Z,929.31
2023-04-13T00:52:39.000Z,929.27
2023-04-13T00:53:39.000Z,929.27
2023-04-13T00:54:38.963Z,929.29
2023-04-13T00:55:38.953Z,929.27
2023-04-13T00:56:38.962Z,929.26
2023-04-13T00:57:38.975Z,929.23
2023-04-13T00:58:38.973Z,929.22
2023-04-13T00:59:38.907Z,929.27
2023-04-13T01:00:39.093Z,929.26
2023-04-13T01:01:38.955Z,929.27
2023-04-13T01:02:38.976Z,929.28
2023-04-13T01:03:38.952Z,929.30
2023-04-13T01:04:38.876Z,929.32
2023-04-13T01:05:38.858Z,929.33
2023-04-13T01:06:38.932Z,929.33
2023-04-13T01:07:38.859Z,929.34
2023-04-13T01:08:38.850Z,929.34
2023-04-13T01:09:38.835Z,929.32
2023-04-13T01:10:38.813Z,929.27
2023-04-13T01:11:38.785Z,929.28
2023-04-13T01:12:38.794Z,929.31
2023-04-13T01:13:38.806Z,929.29
2023-04-13T01:14:38.815Z,929.32
2023-04-13T01:15:38.790Z,929.32
2023-04-13T01:16:38.816Z,929.34
2023-04-13T01:17:38.766Z,929.34
2023-04-13T01:18:38.734Z,929.37
2023-04-13T01:19:38.712Z,929.43
2023-04-13T01:20:38.761Z,929.45
2023-04-13T01:21:38.696Z,929.39
2023-04-13T01:22:38.727Z,929.41
2023-04-13T01:23:38.704Z,929.37
2023-04-13T01:24:38.651Z,929.41
2023-04-13T01:25:38.680Z,929.40
2023-04-13T01:26:38.633Z,929.41
2023-04-13T01:27:38.654Z,929.46
2023-04-13T01:28:38.640Z,929.37
2023-04-13T01:29:38.619Z,929.34
2023-04-13T01:30:38.588Z,929.39
2023-04-13T01:31:38.672Z,929.33
2023-04-13T01:32:38.623Z,929.34
2023-04-13T01:33:38.599Z,929.31
2023-04-13T01:34:38.574Z,929.29
2023-04-13T01:35:38.589Z,929.39
2023-04-13T01:36:38.529Z,929.39
2023-04-13T01:37:38.542Z,929.35
2023-04-13T01:38:38.605Z,929.38
2023-04-13T01:39:38.560Z,929.38
2023-04-13T01:40:38.572Z,929.41
2023-04-13T01:41:38.472Z,929.41
2023-04-13T01:42:38.508Z,929.43
2023-04-13T01:43:38.476Z,929.41
2023-04-13T01:44:38.443Z,929.39
2023-04-13T01:45:38.453Z,929.40
2023-04-13T01:46:38.470Z,929.39
2023-04-13T01:47:38.463Z,929.43
2023-04-13T01:48:38.525Z,929.41
2023-04-13T01:49:38.418Z,929.46
2023-04-13T01:50:39.382Z,929.47
2023-04-13T01:51:38.457Z,929.49
2023-04-13T01:52:38.368Z,929.50
2023-04-13T01:53:38.468Z,929.53
2023-04-13T01:54:38.390Z,929.56
2023-04-13T01:55:38.328Z,929.58
2023-04-13T01:56:38.343Z,929.60
2023-04-13T01:57:38.369Z,929.59
2023-04-13T01:58:38.312Z,929.64
2023-04-13T01:59:38.328Z,929.57
2023-04-13T02:00:38.328Z,929.55
2023-04-13T02:01:38.380Z,929.50
2023-04-13T02:02:38.393Z,929.57
2023-04-13T02:03:38.345Z,929.62
2023-04-13T02:04:38.257Z,929.63
2023-04-13T02:05:38.233Z,929.65
2023-04-13T02:06:38.227Z,929.65
2023-04-13T02:07:38.205Z,929.62
2023-04-13T02:08:38.238Z,929.66
2023-04-13T02:09:38.183Z,929.68
2023-04-13T02:10:38.229Z,929.71
2023-04-13T02:11:38.318Z,929.70
2023-04-13T02:12:38.215Z,929.73
2023-04-13T02:13:38.174Z,929.74
2023-04-13T02:14:38.171Z,929.72
2023-04-13T02:15:38.139Z,929.74
2023-04-13T02:16:38.184Z,929.76
2023-04-13T02:17:38.220Z,929.79
2023-04-13T02:18:38.104Z,929.78
2023-04-13T02:19:38.089Z,929.81
2023-04-13T02:20:38.081Z,929.76
2023-04-13T02:21:38.066Z,929.74
2023-04-13T02:22:38.118Z,929.75
2023-04-13T02:23:38.049Z,929.78
2023-04-13T02:24:38.037Z,929.77
2023-04-13T02:25:38.025Z,929.76
2023-04-13T02:26:38.055Z,929.79
2023-04-13T02:27:38.003Z,929.76
2023-04-13T02:28:38.010Z,929.79
2023-04-13T02:29:38.057Z,929.83
2023-04-13T02:30:38.026Z,929.86
2023-04-13T02:31:38.015Z,929.90
2023-04-13T02:32:38.026Z,929.96
2023-04-13T02:33:38.104Z,929.97
2023-04-13T02:34:37.976Z,929.95
2023-04-13T02:35:37.941Z,929.97
2023-04-13T02:36:37.944Z,929.98
2023-04-13T02:37:38.417Z,929.96
2023-04-13T02:38:37.924Z,929.95
2023-04-13T02:39:37.920Z,929.96
2023-04-13T02:40:37.868Z,929.97
2023-04-13T02:41:37.866Z,929.99
2023-04-13T02:42:37.850Z,929.96
2023-04-13T02:43:37.949Z,929.94
2023-04-13T02:44:37.857Z,929.89
2023-04-13T02:45:37.949Z,929.84
2023-04-13T02:46:37.812Z,929.83
2023-04-13T02:47:37.857Z,929.85
2023-04-13T02:48:37.789Z,929.78
2023-04-13T02:49:37.898Z,929.72
2023-04-13T02:50:37.805Z,929.69
2023-04-13T02:51:37.774Z,929.64
2023-04-13T02:52:37.779Z,929.60
2023-04-13T02:53:37.729Z,929.59
2023-04-13T02:54:37.806Z,929.58
2023-04-13T02:55:37.721Z,929.55
2023-04-13T02:56:37.707Z,929.55
2023-04-13T02:57:37.695Z,929.57
2023-04-13T02:58:37.751Z,929.56
2023-04-13T02:59:37.701Z,929.58
2023-04-13T03:00:37.665Z,929.60
2023-04-13T03:01:37.731Z,929.57
2023-04-13T03:02:37.856Z,929.60
2023-04-13T03:03:37.647Z,929.55
2023-04-13T03:04:37.722Z,929.53
2023-04-13T03:05:37.660Z,929.56
2023-04-13T03:06:37.597Z,929.56
2023-04-13T03:07:37.599Z,929.60
2023-04-13T03:08:37.579Z,929.63
2023-04-13T03:09:37.639Z,929.61
2023-04-13T03:10:37.617Z,929.57
2023-04-13T03:11:37.550Z,929.62
2023-04-13T03:12:37.556Z,929.61
2023-04-13T03:13:37.539Z,929.59
2023-04-13T03:14:37.949Z,929.64
2023-04-13T03:15:37.501Z,929.60
2023-04-13T03:16:38.445Z,929.58
2023-04-13T03:17:37.521Z,929.57
2023-04-13T03:18:45.014Z,929.59
2023-04-13T03:19:37.458Z,929.57
2023-04-13T03:20:37.551Z,929.56
2023-04-13T03:21:37.534Z,929.51
2023-04-13T03:22:37.444Z,929.47
2023-04-13T03:23:37.452Z,929.46
2023-04-13T03:24:37.414Z,929.41
2023-04-13T03:25:37.424Z,929.43
2023-04-13T03:26:37.417Z,929.37
2023-04-13T03:27:37.407Z,929.41
2023-04-13T03:28:37.397Z,929.46
2023-04-13T03:29:37.372Z,929.46
2023-04-13T03:30:37.372Z,929.46
2023-04-13T03:31:37.958Z,929.51
2023-04-13T03:32:37.561Z,929.55
2023-04-13T03:33:37.924Z,929.55
2023-04-13T03:34:37.327Z,929.52
2023-04-13T03:35:37.358Z,929.49
2023-04-13T03:36:37.293Z,929.52
2023-04-13T03:37:37.304Z,929.44
2023-04-13T03:38:37.937Z,929.49
2023-04-13T03:39:37.266Z,929.48
2023-04-13T03:40:37.277Z,929.44
2023-04-13T03:41:37.249Z,929.48
2023-04-13T03:42:37.255Z,929.50
2023-04-13T03:43:37.221Z,929.54
2023-04-13T03:44:37.216Z,929.59
2023-04-13T03:45:37.225Z,929.60
2023-04-13T03:46:37.408Z,929.65
2023-04-13T03:47:37.235Z,929.58
2023-04-13T03:48:37.175Z,929.56
2023-04-13T03:49:37.214Z,929.50
2023-04-13T03:50:37.174Z,929.50
2023-04-13T03:51:37.149Z,929.50
2023-04-13T03:52:37.166Z,929.44
2023-04-13T03:53:37.265Z,929.47
2023-04-13T03:54:37.161Z,929.48
2023-04-13T03:55:37.102Z,929.45
2023-04-13T03:56:37.090Z,929.41
2023-04-13T03:57:37.150Z,929.44
2023-04-13T03:58:37.076Z,929.48
2023-04-13T03:59:37.153Z,929.49
2023-04-13T04:00:37.090Z,929.55
2023-04-13T04:01:37.047Z,929.57
2023-04-13T04:02:37.245Z,929.59
2023-04-13T04:03:37.137Z,929.60
2023-04-13T04:04:37.012Z,929.57
2023-04-13T04:05:37.040Z,929.60
2023-04-13T04:06:36.994Z,929.58
2023-04-13T04:07:37.000Z,929.61
2023-04-13T04:08:37.023Z,929.61
2023-04-13T04:09:37.937Z,929.61
2023-04-13T04:10:36.943Z,929.66
2023-04-13T04:11:37.093Z,929.62
2023-04-13T04:12:36.971Z,929.61
2023-04-13T04:13:36.916Z,929.66
2023-04-13T04:14:36.907Z,929.58
2023-04-13T04:15:36.894Z,929.61
2023-04-13T04:16:36.990Z,929.64
2023-04-13T04:17:39.324Z,929.64
2023-04-13T04:18:36.901Z,929.64
2023-04-13T04:19:36.890Z,929.64
2023-04-13T04:20:36.861Z,929.68
2023-04-13T04:21:36.832Z,929.68
2023-04-13T04:22:36.838Z,929.73
2023-04-13T04:23:36.928Z,929.70
2023-04-13T04:24:36.849Z,929.78
2023-04-13T04:25:36.851Z,929.82
2023-04-13T04:26:37.422Z,929.85
2023-04-13T04:27:36.794Z,929.83
2023-04-13T04:28:36.800Z,929.81
2023-04-13T04:29:36.746Z,929.81
2023-04-13T04:30:36.764Z,929.82
2023-04-13T04:31:37.471Z,929.78
2023-04-13T04:32:36.896Z,929.84
2023-04-13T04:33:36.774Z,929.82
2023-04-13T04:34:36.703Z,929.83
2023-04-13T04:35:36.729Z,929.79
2023-04-13T04:36:36.693Z,929.75
2023-04-13T04:37:36.706Z,929.77
2023-04-13T04:38:36.673Z,929.74
2023-04-13T04:39:36.651Z,929.73
2023-04-13T04:40:36.676Z,929.70
2023-04-13T04:41:36.680Z,929.74
2023-04-13T04:42:36.610Z,929.70
2023-04-13T04:43:36.613Z,929.67
2023-04-13T04:44:36.618Z,929.70
2023-04-13T04:45:36.614Z,929.72
2023-04-13T04:46:36.711Z,929.76
2023-04-13T04:47:36.605Z,929.74
2023-04-13T04:48:36.549Z,929.72
2023-04-13T04:49:36.545Z,929.75
2023-04-13T04:50:36.551Z,929.69
2023-04-13T04:51:36.529Z,929.70
2023-04-13T04:52:36.548Z,929.69
2023-04-13T04:53:36.514Z,929.72
2023-04-13T04:54:36.571Z,929.69
2023-04-13T04:55:36.532Z,929.65
2023-04-13T04:56:36.474Z,929.67
2023-04-13T04:57:36.552Z,929.68
2023-04-13T04:58:36.460Z,929.65
2023-04-13T04:59:36.446Z,929.65
2023-04-13T05:00:36.458Z,929.62
2023-04-13T05:01:36.439Z,929.63
2023-04-13T05:02:36.522Z,929.62
2023-04-13T05:03:36.446Z,929.62
2023-04-13T05:04:36.434Z,929.59
2023-04-13T05:05:36.491Z,929.60
2023-04-13T05:06:36.365Z,929.63
2023-04-13T05:07:36.410Z,929.67
2023-04-13T05:08:36.379Z,929.68
2023-04-13T05:09:36.369Z,929.71
2023-04-13T05:10:36.359Z,929.71
2023-04-13T05:11:36.353Z,929.78
2023-04-13T05:12:37.464Z,929.73
2023-04-13T05:13:36.321Z,929.71
2023-04-13T05:14:36.289Z,929.72
2023-04-13T05:15:36.291Z,929.67
2023-04-13T05:16:36.420Z,929.65
2023-04-13T05:17:36.410Z,929.66
2023-04-13T05:18:36.247Z,929.65
2023-04-13T05:19:38.618Z,929.66
2023-04-13T05:20:36.222Z,929.65
2023-04-13T05:21:36.241Z,929.72
2023-04-13T05:22:36.298Z,929.68
2023-04-13T05:23:36.270Z,929.71
2023-04-13T05:24:36.204Z,929.69
2023-04-13T05:25:36.183Z,929.69
2023-04-13T05:26:36.534Z,929.72
2023-04-13T05:27:36.205Z,929.70
2023-04-13T05:28:36.177Z,929.72
2023-04-13T05:29:36.212Z,929.72
2023-04-13T05:30:36.139Z,929.77
2023-04-13T05:31:36.148Z,929.75
2023-04-13T05:32:36.124Z,929.74
2023-04-13T05:33:36.142Z,929.78
2023-04-13T05:34:36.087Z,929.76
2023-04-13T05:35:36.168Z,929.86
2023-04-13T05:36:36.082Z,929.88
2023-04-13T05:37:36.055Z,929.90
2023-04-13T05:38:36.040Z,929.96
2023-04-13T05:39:36.045Z,930.03
2023-04-13T05:40:36.066Z,930.06
2023-04-13T05:41:36.072Z,930.08
2023-04-13T05:42:36.012Z,930.08
2023-04-13T05:43:36.002Z,930.07
2023-04-13T05:44:35.995Z,930.06
2023-04-13T05:45:36.079Z,930.11
2023-04-13T05:46:36.022Z,930.11
2023-04-13T05:47:36.097Z,930.11
2023-04-13T05:48:35.937Z,930.10
2023-04-13T05:49:35.961Z,930.12
2023-04-13T05:50:35.953Z,930.14
2023-04-13T05:51:35.986Z,930.17
2023-04-13T05:52:35.929Z,930.18
2023-04-13T05:53:35.907Z,930.18
2023-04-13T05:54:35.879Z,930.12
2023-04-13T05:55:35.886Z,930.13
2023-04-13T05:56:35.889Z,930.12
2023-04-13T05:57:35.926Z,930.12
2023-04-13T05:58:35.860Z,930.12
2023-04-13T05:59:35.875Z,930.11
2023-04-13T06:00:35.808Z,930.13
2023-04-13T06:01:35.850Z,930.04
2023-04-13T06:02:35.930Z,930.00
2023-04-13T06:03:36.149Z,930.04
2023-04-13T06:04:35.904Z,930.06
2023-04-13T06:05:35.793Z,930.10
2023-04-13T06:06:35.757Z,930.06
2023-04-13T06:07:35.773Z,930.09
2023-04-13T06:08:35.763Z,930.09
2023-04-13T06:09:35.724Z,930.04
2023-04-13T06:10:35.718Z,930.06
2023-04-13T06:11:35.718Z,930.02
2023-04-13T06:12:35.713Z,930.07
2023-04-13T06:13:35.701Z,930.01
2023-04-13T06:14:35.747Z,930.00
2023-04-13T06:15:35.695Z,930.01
2023-04-13T06:16:35.684Z,930.01
2023-04-13T06:17:35.701Z,930.04
2023-04-13T06:18:35.637Z,930.08
2023-04-13T06:19:35.622Z,930.12
2023-04-13T06:20:35.991Z,930.20
2023-04-13T06:21:35.603Z,930.21
2023-04-13T06:22:35.630Z,930.21
2023-04-13T06:23:35.617Z,930.17
2023-04-13T06:24:35.592Z,930.21
2023-04-13T06:25:35.563Z,930.20
2023-04-13T06:26:35.593Z,930.17
2023-04-13T06:27:35.595Z,930.15
2023-04-13T06:28:35.584Z,930.16
2023-04-13T06:29:35.520Z,930.11
2023-04-13T06:30:35.599Z,930.13
2023-04-13T06:31:35.538Z,930.15
2023-04-13T06:32:35.531Z,930.11
2023-04-13T06:33:35.538Z,930.14
2023-04-13T06:34:36.006Z,930.14
2023-04-13T06:35:35.508Z,930.14
2023-04-13T06:36:35.441Z,930.12
2023-04-13T06:37:35.426Z,930.12
2023-04-13T06:38:35.419Z,930.11
2023-04-13T06:39:35.427Z,930.10
2023-04-13T06:40:35.420Z,930.08
2023-04-13T06:41:35.397Z,930.11
2023-04-13T06:42:35.405Z,930.05
2023-04-13T06:43:35.404Z,930.08
2023-04-13T06:44:35.360Z,930.14
2023-04-13T06:45:35.355Z,930.05
2023-04-13T06:46:35.493Z,930.08
2023-04-13T06:47:35.493Z,930.12
2023-04-13T06:48:35.338Z,930.12
2023-04-13T06:49:35.348Z,930.09
2023-04-13T06:50:35.322Z,930.13
2023-04-13T06:51:35.309Z,930.10
2023-04-13T06:52:35.293Z,930.16
2023-04-13T06:53:35.348Z,930.17
2023-04-13T06:54:35.261Z,930.22
2023-04-13T06:55:35.254Z,930.20
2023-04-13T06:56:35.229Z,930.18
2023-04-13T06:57:35.251Z,930.21
2023-04-13T06:58:35.238Z,930.20
2023-04-13T06:59:35.215Z,930.22
2023-04-13T07:00:35.259Z,930.20
2023-04-13T07:01:35.309Z,930.22
2023-04-13T07:02:35.367Z,930.27
2023-04-13T07:03:36.151Z,930.26
2023-04-13T07:04:35.292Z,930.25
2023-04-13T07:05:35.171Z,930.27
2023-04-13T07:06:35.156Z,930.25
2023-04-13T07:07:35.143Z,930.30
2023-04-13T07:08:35.152Z,930.31
2023-04-13T07:09:35.111Z,930.26
2023-04-13T07:10:35.097Z,930.34
2023-04-13T07:11:35.077Z,930.31
2023-04-13T07:12:35.069Z,930.29
2023-04-13T07:13:35.067Z,930.34
2023-04-13T07:14:35.098Z,930.29
2023-04-13T07:15:35.065Z,930.26
2023-04-13T07:16:35.183Z,930.26
2023-04-13T07:17:35.080Z,930.28
2023-04-13T07:18:35.125Z,930.23
2023-04-13T07:19:35.051Z,930.27
2023-04-13T07:20:35.010Z,930.18
2023-04-13T07:21:35.006Z,930.19
2023-04-13T07:22:35.155Z,930.17
2023-04-13T07:23:34.968Z,930.16
2023-04-13T07:24:35.028Z,930.16
2023-04-13T07:25:34.947Z,930.20
2023-04-13T07:26:34.961Z,930.21
2023-04-13T07:27:34.910Z,930.12
2023-04-13T07:28:34.981Z,930.09
2023-04-13T07:29:34.913Z,930.09
2023-04-13T07:30:35.007Z,930.10
2023-04-13T07:31:34.912Z,930.16
2023-04-13T07:32:34.957Z,930.16
2023-04-13T07:33:35.484Z,930.18
2023-04-13T07:34:34.847Z,930.21
2023-04-13T07:35:34.838Z,930.19
2023-04-13T07:36:34.839Z,930.18
2023-04-13T07:37:34.897Z,930.23
2023-04-13T07:38:34.815Z,930.13
2023-04-13T07:39:34.791Z,930.16
2023-04-13T07:40:34.788Z,930.14
2023-04-13T07:41:34.781Z,930.17
2023-04-13T07:42:34.805Z,930.17
2023-04-13T07:43:34.760Z,930.18
2023-04-13T07:44:34.733Z,930.19
2023-04-13T07:45:34.764Z,930.14
2023-04-13T07:46:39.570Z,930.14
2023-04-13T07:47:34.773Z,930.12
2023-04-13T07:48:34.719Z,930.16
2023-04-13T07:49:34.687Z,930.15
2023-04-13T07:50:34.689Z,930.15
2023-04-13T07:51:34.683Z,930.13
2023-04-13T07:52:34.671Z,930.14
2023-04-13T07:53:35.046Z,930.04
2023-04-13T07:54:34.694Z,930.09
2023-04-13T07:55:34.673Z,930.02
2023-04-13T07:56:34.676Z,930.09
2023-04-13T07:57:34.670Z,930.10
2023-04-13T07:58:34.712Z,930.06
2023-04-13T07:59:34.655Z,930.12
2023-04-13T08:00:34.699Z,930.07
2023-04-13T08:01:34.560Z,930.07
2023-04-13T08:02:34.871Z,930.11
2023-04-13T08:03:34.683Z,930.13
2023-04-13T08:04:34.704Z,930.10
2023-04-13T08:05:34.583Z,930.08
2023-04-13T08:06:34.494Z,930.07
2023-04-13T08:07:34.501Z,930.13
2023-04-13T08:08:35.058Z,930.06
2023-04-13T08:09:34.544Z,930.07
2023-04-13T08:10:34.581Z,930.12
2023-04-13T08:11:34.485Z,930.08
2023-04-13T08:12:34.462Z,930.07
2023-04-13T08:13:34.457Z,930.06
2023-04-13T08:14:34.549Z,930.02
2023-04-13T08:15:34.427Z,930.07
2023-04-13T08:16:34.601Z,930.06
2023-04-13T08:17:34.390Z,929.97
2023-04-13T08:18:35.024Z,929.99
2023-04-13T08:19:41.924Z,930.02
2023-04-13T08:20:34.353Z,930.05
2023-04-13T08:21:34.349Z,930.06
2023-04-13T08:22:34.333Z,930.09
2023-04-13T08:23:34.343Z,930.06
2023-04-13T08:24:34.365Z,930.04
2023-04-13T08:25:34.383Z,930.10
2023-04-13T08:26:34.285Z,930.13
2023-04-13T08:27:34.283Z,930.11
2023-04-13T08:28:34.332Z,930.11
2023-04-13T08:29:34.473Z,930.09
2023-04-13T08:30:34.388Z,930.10
2023-04-13T08:31:34.252Z,930.12
2023-04-13T08:32:34.271Z,930.11
2023-04-13T08:33:34.254Z,930.04
2023-04-13T08:34:34.210Z,930.06
2023-04-13T08:35:34.261Z,930.03
2023-04-13T08:36:34.271Z,930.12
2023-04-13T08:37:34.245Z,930.01
2023-04-13T08:38:36.537Z,930.01
2023-04-13T08:39:34.195Z,930.04
2023-04-13T08:40:34.164Z,930.03
2023-04-13T08:41:36.351Z,930.00
2023-04-13T08:42:34.205Z,929.99
2023-04-13T08:43:34.229Z,929.93
2023-04-13T08:44:34.242Z,929.95
2023-04-13T08:45:34.093Z,929.95
2023-04-13T08:46:34.111Z,929.93
2023-04-13T08:47:34.127Z,929.92
2023-04-13T08:48:42.765Z,929.89
2023-04-13T08:49:35.051Z,929.88
2023-04-13T08:50:34.053Z,929.92
2023-04-13T08:51:34.068Z,929.89
2023-04-13T08:52:34.029Z,929.87
2023-04-13T08:53:34.023Z,929.88
2023-04-13T08:54:34.023Z,929.82
2023-04-13T08:55:34.024Z,929.80
2023-04-13T08:56:44.383Z,929.81
2023-04-13T08:57:35.011Z,929.76
2023-04-13T08:58:33.951Z,929.75
2023-04-13T08:59:33.951Z,929.72
2023-04-13T09:00:33.960Z,929.71
2023-04-13T09:01:34.090Z,929.72
2023-04-13T09:02:34.062Z,929.66
2023-04-13T09:03:34.173Z,929.64
2023-04-13T09:04:34.014Z,929.60
2023-04-13T09:05:33.888Z,929.63
2023-04-13T09:06:33.900Z,929.56
2023-04-13T09:07:33.857Z,929.53
2023-04-13T09:08:34.107Z,929.60
2023-04-13T09:09:33.896Z,929.58
2023-04-13T09:10:34.017Z,929.56
2023-04-13T09:11:35.023Z,929.53
2023-04-13T09:12:33.847Z,929.50
2023-04-13T09:13:33.839Z,929.57
2023-04-13T09:14:33.792Z,929.57
2023-04-13T09:15:33.813Z,929.52
2023-04-13T09:16:33.800Z,929.53
2023-04-13T09:17:33.859Z,929.50
2023-04-13T09:18:33.800Z,929.41
2023-04-13T09:19:33.751Z,929.49
2023-04-13T09:20:33.735Z,929.47
2023-04-13T09:21:34.579Z,929.40
2023-04-13T09:22:34.535Z,929.47
2023-04-13T09:23:34.550Z,929.38
2023-04-13T09:24:33.726Z,929.41
2023-04-13T09:25:33.703Z,929.36
2023-04-13T09:26:33.711Z,929.31
2023-04-13T09:27:33.832Z,929.35
2023-04-13T09:28:33.703Z,929.35
2023-04-13T09:29:38.581Z,929.20
2023-04-13T09:30:33.711Z,929.10
2023-04-13T09:31:33.704Z,929.15
2023-04-13T09:32:33.743Z,929.18
2023-04-13T09:33:33.577Z,929.13
2023-04-13T09:34:33.591Z,929.21
2023-04-13T09:35:33.562Z,929.07
2023-04-13T09:36:34.811Z,929.23
2023-04-13T09:37:34.524Z,929.21
2023-04-13T09:38:33.535Z,929.07
2023-04-13T09:39:33.596Z,929.23
2023-04-13T09:40:33.532Z,929.25
2023-04-13T09:41:33.540Z,929.17
2023-04-13T09:42:33.488Z,929.22
2023-04-13T09:43:33.480Z,929.35
2023-04-13T09:44:33.473Z,929.21
2023-04-13T09:45:33.519Z,929.24
2023-04-13T09:46:33.553Z,929.17
2023-04-13T09:47:33.455Z,929.24
2023-04-13T09:48:33.424Z,929.16
2023-04-13T09:49:33.446Z,929.18
2023-04-13T09:50:33.414Z,929.16
2023-04-13T09:51:33.447Z,929.13
2023-04-13T09:52:33.386Z,929.11
2023-04-13T09:53:36.016Z,929.16
2023-04-13T09:54:34.068Z,929.12
2023-04-13T09:55:33.374Z,929.09
2023-04-13T09:56:36.039Z,929.10
2023-04-13T09:57:33.335Z,929.08
2023-04-13T09:58:33.374Z,929.12
2023-04-13T09:59:33.331Z,929.14
2023-04-13T10:00:33.365Z,929.09
2023-04-13T10:01:33.370Z,929.08
2023-04-13T10:02:33.421Z,929.04
2023-04-13T10:03:33.318Z,928.97
2023-04-13T10:04:33.345Z,928.99
2023-04-13T10:05:35.452Z,929.01
2023-04-13T10:06:34.327Z,928.97
2023-04-13T10:07:33.239Z,929.03
2023-04-13T10:08:38.089Z,928.95
2023-04-13T10:09:34.196Z,929.04
2023-04-13T10:10:33.194Z,929.07
2023-04-13T10:11:33.178Z,928.94
2023-04-13T10:12:33.232Z,929.02
2023-04-13T10:13:33.189Z,929.02
2023-04-13T10:14:33.157Z,929.02
2023-04-13T10:15:33.205Z,928.96
2023-04-13T10:16:33.208Z,929.04
2023-04-13T10:17:33.272Z,928.96
2023-04-13T10:18:33.223Z,928.96
2023-04-13T10:19:33.096Z,929.03
2023-04-13T10:20:33.091Z,929.01
2023-04-13T10:21:33.099Z,928.96
2023-04-13T10:22:33.638Z,928.96
2023-04-13T10:23:34.053Z,928.95
2023-04-13T10:24:33.051Z,928.97
2023-04-13T10:25:35.014Z,928.90
2023-04-13T10:26:33.042Z,928.90
2023-04-13T10:27:33.012Z,928.90
2023-04-13T10:28:33.123Z,928.92
2023-04-13T10:29:33.041Z,928.90
2023-04-13T10:30:33.007Z,928.92
2023-04-13T10:31:33.068Z,928.97
2023-04-13T10:32:33.031Z,929.00
2023-04-13T10:33:33.181Z,928.97
2023-04-13T10:34:32.988Z,929.01
2023-04-13T10:35:33.548Z,929.00
2023-04-13T10:36:32.935Z,928.94
2023-04-13T10:37:33.077Z,929.01
2023-04-13T10:38:32.914Z,928.97
2023-04-13T10:39:32.912Z,928.97
2023-04-13T10:40:32.952Z,928.99
2023-04-13T10:41:32.860Z,929.02
2023-04-13T10:42:39.253Z,929.01
2023-04-13T10:43:33.839Z,928.99
2023-04-13T10:44:38.849Z,929.00
2023-04-13T10:45:33.816Z,929.04
2023-04-13T10:46:32.819Z,929.01
2023-04-13T10:47:32.856Z,928.97
2023-04-13T10:48:32.788Z,928.98
2023-04-13T10:49:32.962Z,929.02
2023-04-13T10:50:32.839Z,929.04
2023-04-13T10:51:32.801Z,929.03
2023-04-13T10:52:32.748Z,929.02
2023-04-13T10:53:32.750Z,928.95
2023-04-13T10:54:32.750Z,928.97
2023-04-13T10:55:32.743Z,928.94
2023-04-13T10:56:32.748Z,928.94
2023-04-13T10:57:32.764Z,928.93
2023-04-13T10:58:33.210Z,928.89
2023-04-13T10:59:39.095Z,928.94
2023-04-13T11:01:32.677Z,928.90
2023-04-13T11:02:33.352Z,928.91
2023-04-13T11:03:32.773Z,928.97
2023-04-13T11:04:32.766Z,928.94
2023-04-13T11:05:32.639Z,928.96
2023-04-13T11:06:32.599Z,928.99
2023-04-13T11:07:35.578Z,929.02
2023-04-13T11:08:32.670Z,928.97
2023-04-13T11:09:33.581Z,929.00
2023-04-13T11:10:32.709Z,928.95
2023-04-13T11:11:32.564Z,929.03
2023-04-13T11:12:32.545Z,929.02
2023-04-13T11:13:32.564Z,929.04
2023-04-13T11:14:32.525Z,929.00
2023-04-13T11:15:32.496Z,929.01
2023-04-13T11:16:32.544Z,929.02
2023-04-13T11:17:32.560Z,929.06
2023-04-13T11:18:33.218Z,929.06
2023-04-13T11:19:32.457Z,929.04
2023-04-13T11:20:32.602Z,928.96
2023-04-13T11:21:32.546Z,929.06
2023-04-13T11:22:32.479Z,929.01
2023-04-13T11:23:32.465Z,929.05
2023-04-13T11:24:32.415Z,929.04
2023-04-13T11:25:32.403Z,929.02
2023-04-13T11:26:32.430Z,929.03
2023-04-13T11:27:32.392Z,928.97
2023-04-13T11:28:32.377Z,928.92
2023-04-13T11:29:32.355Z,928.95
2023-04-13T11:30:32.360Z,928.95
2023-04-13T11:31:32.636Z,928.93
2023-04-13T11:32:32.458Z,928.93
2023-04-13T11:33:32.374Z,928.91
2023-04-13T11:34:32.346Z,928.92
2023-04-13T11:35:32.317Z,928.89
2023-04-13T11:36:32.313Z,928.83
2023-04-13T11:37:32.291Z,928.84
2023-04-13T11:38:32.252Z,928.84
2023-04-13T11:39:33.072Z,928.81
2023-04-13T11:40:32.242Z,928.80
2023-04-13T11:41:32.272Z,928.81
2023-04-13T11:42:32.255Z,928.74
2023-04-13T11:43:32.204Z,928.77
2023-04-13T11:44:32.218Z,928.77
2023-04-13T11:45:32.227Z,928.74
2023-04-13T11:46:32.243Z,928.72
2023-04-13T11:47:32.184Z,928.67
2023-04-13T11:48:32.187Z,928.69
2023-04-13T11:49:32.206Z,928.72
2023-04-13T11:50:33.241Z,928.76
2023-04-13T11:51:32.148Z,928.70
2023-04-13T11:52:33.060Z,928.73
2023-04-13T11:53:32.225Z,928.68
2023-04-13T11:54:32.108Z,928.73
2023-04-13T11:55:36.774Z,928.65
2023-04-13T11:56:33.259Z,928.65
2023-04-13T11:57:32.122Z,928.68
2023-04-13T11:58:32.043Z,928.71
2023-04-13T11:59:32.036Z,928.72
2023-04-13T12:00:32.094Z,928.67
2023-04-13T12:01:34.468Z,928.73
2023-04-13T12:02:33.889Z,928.71
2023-04-13T12:03:47.094Z,928.75
2023-04-13T12:04:33.855Z,928.73
2023-04-13T12:05:32.993Z,928.69
2023-04-13T12:06:32.408Z,928.71
2023-04-13T12:07:32.411Z,928.66
2023-04-13T12:08:32.212Z,928.76
2023-04-13T12:09:53.166Z,928.77
2023-04-13T12:10:40.350Z,928.73
2023-04-13T12:12:51.394Z,928.76
2023-04-13T12:13:36.251Z,928.86
2023-04-13T12:14:54.138Z,928.82
2023-04-13T12:15:43.513Z,928.87
2023-04-13T12:17:01.477Z,928.87
2023-04-13T12:17:39.124Z,928.89
2023-04-13T12:18:37.229Z,928.89
2023-04-13T12:19:33.250Z,928.90
2023-04-13T12:20:31.964Z,928.91
2023-04-13T12:21:33.875Z,928.92
2023-04-13T12:22:35.759Z,928.87
2023-04-13T12:23:32.867Z,928.91
2023-04-13T12:24:32.821Z,928.90
2023-04-13T12:25:35.548Z,928.94
2023-04-13T12:27:16.241Z,928.93
2023-04-13T12:27:32.733Z,928.98
2023-04-13T12:28:34.128Z,928.91
2023-04-13T12:29:31.743Z,928.93
2023-04-13T12:30:31.955Z,928.97